Augusta, ME (04330)

12:29 AM EST on January 28, 2015 (GMT -0500)
Cushnoc,Road | Change Station
CLOSE
Current Station
Personal Weather Station
Location: Vassalboro, ME
Elevation: 150 ft
Nearby Weather Stations

Elev 150 ft 44.39 °N, 69.72 °W | Updated 10 seconds ago

Snow
Snow
11.4 °F
Feels Like 1 °F
N
7.0
Wind Variable Wind from North
Gusts 7.0 mph

Today
High -- | Low -- °F
--% Chance of Precip.
Yesterday
High -- | Low -- °F
Precip. -- in
7:01 AM 4:42 PM
First Quarter, 61% visible
Pressure 29.65 in
Visibility 1.5 miles
Clouds Scattered Clouds 2800 ft
Overcast 3700 ft
Windchill 1 °F
Dew Point 9 °F
Humidity 90%
Rainfall 0.00 in
Snow Depth Not available.
UV 0 out of 12
Pollen .10 out of 12
Air Quality Not available.
Flu Activity Not available.
METAR KAUG 280453Z AUTO 35020G32KT 1 1/2SM -SN BR SCT028 OVC037 M12/M14 A2962 RMK AO2 PK WND 34032/0451 SLP039 P0000 T11221144 411061144

More Conditions Fewer Conditions

Pressure 29.65 in
Visibility 1.5 miles
Clouds Scattered Clouds 2800 ft
Overcast 3700 ft
Windchill 1 °F
Dew Point 9 °F
Humidity 90%
Rainfall 0.00 in
Snow Depth Not available.
UV 0 out of 12
Pollen .10 out of 12
Air Quality Not available.
Flu Activity Not available.
METAR KAUG 280453Z AUTO 35020G32KT 1 1/2SM -SN BR SCT028 OVC037 M12/M14 A2962 RMK AO2 PK WND 34032/0451 SLP039 P0000 T11221144 411061144

More Conditions Fewer Conditions

10-Day Weather Forecast

Almanac

Astronomy

Jan. 28, 2015 Rise Set
Actual Time
Civil Twilight
Nautical Twilight
Astronomical Twilight
Moon
Length of Visible Light
Length of Day
Tomorrow will be .
, % of the Moon is Illuminated

Today's Extremes

State Highs State Lows

Community

WunderPhotos

Upload Photos

1,791,103 photos uploaded!

WunderBlogs® & News

Nearby

Air Quality

  Air Quality AQ Index Pollutant
Not available.

Snow Depth

Station Depth Elevation

Earthquake Activity

City Distance Mag. Time & Date
Minimum magnitude displayed is 2.5.

Coastal Water Temperatures

Place Temperature

Nearby Weather Stations